Time;durP1;ratioP1;P1;durP2;ratioP2;P2;SDS_P1;SDS_P2;PMS_P1;PMS_P2;Temp;Humidity;BMP_temperature;BMP_pressure;BME280_temperature;BME280_humidity;BME280_pressure;Samples;Min_cycle;Max_cycle;Signal;HPM_P1;HPM_P2
2022/10/16 00:01:11;;;;;;;9.80;2.80;;;13.40;99.90;;;;;;5062682;28;20040;-79
2022/10/16 00:03:39;;;;;;;7.97;2.97;;;13.40;99.90;;;;;;5049480;28;20440;-79
2022/10/16 00:06:05;;;;;;;9.15;2.97;;;13.40;99.90;;;;;;5072723;28;20048;-79
2022/10/16 00:08:31;;;;;;;7.93;3.20;;;13.40;99.90;;;;;;5074394;28;20055;-77
2022/10/16 00:11:02;;;;;;;5.90;2.90;;;13.30;99.90;;;;;;5069439;28;20040;-78
2022/10/16 00:13:28;;;;;;;10.20;3.00;;;13.40;99.90;;;;;;5067662;28;20047;-79
2022/10/16 00:15:56;;;;;;;9.07;2.97;;;13.30;99.90;;;;;;5062395;28;20096;-78
2022/10/16 00:18:22;;;;;;;10.13;3.25;;;13.40;99.90;;;;;;5053382;28;20048;-78
2022/10/16 00:20:48;;;;;;;7.18;2.92;;;13.30;99.90;;;;;;5050895;28;21231;-79
2022/10/16 00:23:13;;;;;;;5.10;3.00;;;13.40;99.90;;;;;;5071813;28;20043;-80
2022/10/16 00:25:39;;;;;;;9.07;3.15;;;13.40;99.90;;;;;;5072309;28;20044;-80
2022/10/16 00:28:05;;;;;;;8.50;3.60;;;13.40;99.90;;;;;;5052425;28;20041;-80
2022/10/16 00:30:30;;;;;;;7.25;3.22;;;13.40;99.90;;;;;;5070516;28;20068;-79
2022/10/16 00:32:56;;;;;;;6.13;2.95;;;13.40;99.90;;;;;;5062363;28;20095;-79
2022/10/16 00:35:22;;;;;;;5.63;3.17;;;13.40;99.90;;;;;;5071059;28;20036;-78
2022/10/16 00:37:47;;;;;;;7.93;3.25;;;13.40;99.90;;;;;;5070944;28;20045;-79
2022/10/16 00:40:13;;;;;;;8.77;3.08;;;13.40;99.90;;;;;;5072381;28;20084;-78
2022/10/16 00:42:39;;;;;;;9.00;3.08;;;13.40;99.90;;;;;;5051870;28;20440;-79
2022/10/16 00:45:05;;;;;;;7.85;3.20;;;13.40;99.90;;;;;;5052684;28;20044;-79
2022/10/16 00:47:36;;;;;;;8.23;3.20;;;13.40;99.90;;;;;;5054152;28;20075;-79
2022/10/16 00:50:26;;;;;;;5.60;2.80;;;13.40;99.90;;;;;;5051756;28;20431;-79
2022/10/16 00:52:53;;;;;;;7.40;2.92;;;13.40;99.90;;;;;;5069146;28;20043;-77
2022/10/16 00:55:19;;;;;;;10.97;3.57;;;13.40;99.90;;;;;;5054294;28;20048;-77
2022/10/16 00:57:47;;;;;;;8.25;3.40;;;13.40;99.90;;;;;;5069564;28;20045;-77
2022/10/16 01:00:14;;;;;;;;;;;13.50;99.90;;;;;;5065280;28;20040;-76
2022/10/16 01:02:40;;;;;;;8.45;2.70;;;13.40;99.90;;;;;;5063739;28;20012;-77
2022/10/16 01:05:06;;;;;;;8.40;2.92;;;13.40;99.90;;;;;;5057616;28;20178;-76
2022/10/16 01:08:08;;;;;;;4.45;2.75;;;13.40;99.90;;;;;;5046766;28;20132;-77
2022/10/16 01:10:40;;;;;;;10.40;2.42;;;13.40;99.90;;;;;;5024773;28;20133;-77
2022/10/16 01:13:15;;;;;;;6.82;2.80;;;13.50;99.90;;;;;;5024131;28;20053;-76
2022/10/16 01:15:56;;;;;;;7.05;2.60;;;13.40;99.90;;;;;;5044790;28;20040;-77
2022/10/16 01:18:35;;;;;;;6.35;2.60;;;13.40;99.90;;;;;;5022906;28;20040;-77
2022/10/16 01:21:08;;;;;;;6.88;2.50;;;13.50;99.90;;;;;;5045975;28;20088;-77
2022/10/16 01:24:21;;;;;;;6.28;2.47;;;13.40;99.90;;;;;;5043692;28;20154;-76
2022/10/16 01:27:18;;;;;;;10.82;2.90;;;13.50;99.90;;;;;;5034700;28;20121;-77
2022/10/16 01:29:54;;;;;;;8.13;2.70;;;13.40;99.90;;;;;;5046465;28;20041;-77
2022/10/16 01:32:39;;;;;;;6.28;2.58;;;13.50;99.90;;;;;;5038144;28;20124;-77
2022/10/16 01:35:15;;;;;;;6.13;2.65;;;13.40;99.90;;;;;;5043203;28;20051;-76
2022/10/16 01:37:47;;;;;;;6.68;2.75;;;13.40;99.90;;;;;;5044457;28;20483;-77
2022/10/16 01:40:16;;;;;;;6.25;2.63;;;13.50;99.90;;;;;;5042293;28;20045;-77
2022/10/16 01:42:58;;;;;;;9.30;2.80;;;13.50;99.90;;;;;;5040858;28;20041;-77
2022/10/16 01:45:24;;;;;;;8.57;2.75;;;13.40;99.90;;;;;;5047225;28;20044;-77
2022/10/16 01:47:52;;;;;;;7.50;2.70;;;13.40;99.90;;;;;;5027307;28;20049;-77
2022/10/16 01:50:20;;;;;;;6.10;2.22;;;13.40;99.90;;;;;;5025477;28;20088;-77
2022/10/16 01:52:49;;;;;;;5.13;2.60;;;13.30;99.90;;;;;;5023853;28;20469;-77
2022/10/16 01:55:19;;;;;;;7.72;2.92;;;13.40;99.90;;;;;;5029329;28;20087;-77
2022/10/16 01:57:49;;;;;;;6.38;2.67;;;13.40;99.90;;;;;;5024821;28;20052;-77
2022/10/16 02:00:18;;;;;;;5.47;2.80;;;13.30;99.90;;;;;;5047233;28;20201;-77
2022/10/16 02:02:48;;;;;;;4.70;2.50;;;13.30;99.90;;;;;;5039561;28;20076;-77
2022/10/16 02:05:40;;;;;;;5.57;2.65;;;13.30;99.90;;;;;;5047988;28;20045;-77
2022/10/16 02:08:06;;;;;;;7.50;2.78;;;13.30;99.90;;;;;;5021109;28;20087;-77
2022/10/16 02:10:34;;;;;;;8.52;3.35;;;13.30;99.90;;;;;;5039878;28;20037;-77
2022/10/16 02:13:09;;;;;;;5.18;2.95;;;13.30;99.90;;;;;;5036575;28;20087;-77
2022/10/16 02:15:35;;;;;;;7.93;2.70;;;13.30;99.90;;;;;;5066252;28;20052;-77
2022/10/16 02:18:03;;;;;;;6.47;2.80;;;13.30;99.90;;;;;;5047762;28;20143;-77
2022/10/16 02:20:33;;;;;;;8.00;2.85;;;13.30;99.90;;;;;;5059194;28;20048;-76
2022/10/16 02:23:01;;;;;;;6.63;2.88;;;13.30;99.90;;;;;;5065292;28;20051;-77
2022/10/16 02:25:39;;;;;;;8.43;2.65;;;13.30;99.90;;;;;;5063455;28;20044;-77
2022/10/16 02:28:34;;;;;;;7.28;2.63;;;13.30;99.90;;;;;;5044379;28;20049;-77
2022/10/16 02:31:04;;;;;;;5.07;2.67;;;13.30;99.90;;;;;;5055817;28;20060;-77
2022/10/16 02:33:31;;;;;;;5.30;2.53;;;13.20;99.90;;;;;;5061782;28;20052;-77
2022/10/16 02:35:57;;;;;;;;;;;13.20;99.90;;;;;;5049054;28;20048;-77
2022/10/16 02:38:25;;;;;;;7.10;2.70;;;13.20;99.90;;;;;;5047443;28;19928;-77
2022/10/16 02:40:51;;;;;;;6.90;2.90;;;13.20;99.90;;;;;;5064723;28;20066;-77
2022/10/16 02:43:17;;;;;;;5.88;2.70;;;13.20;99.90;;;;;;5059883;28;22170;-76
2022/10/16 02:45:42;;;;;;;7.60;2.70;;;13.30;99.90;;;;;;5056904;28;20041;-77
2022/10/16 02:48:08;;;;;;;8.15;2.72;;;13.30;99.90;;;;;;5062640;28;20032;-77
2022/10/16 02:50:34;;;;;;;7.82;2.30;;;13.20;99.90;;;;;;5044897;28;20052;-77
2022/10/16 02:53:00;;;;;;;4.75;2.20;;;13.30;99.90;;;;;;5048099;28;20049;-77
2022/10/16 02:55:27;;;;;;;6.65;2.60;;;13.30;99.90;;;;;;5044848;28;20040;-77
2022/10/16 02:57:53;;;;;;;;;;;13.30;99.90;;;;;;5044553;28;20155;-77
2022/10/16 03:00:19;;;;;;;4.78;2.72;;;13.30;99.90;;;;;;5043913;28;19928;-77
2022/10/16 03:02:45;;;;;;;4.63;2.60;;;13.30;99.90;;;;;;5045574;28;20109;-77
2022/10/16 03:05:11;;;;;;;6.50;2.50;;;13.30;99.90;;;;;;5065379;28;20043;-77
2022/10/16 03:07:36;;;;;;;4.80;2.50;;;13.30;99.90;;;;;;5044887;28;20041;-77
2022/10/16 03:10:02;;;;;;;5.30;2.55;;;13.30;99.90;;;;;;5044348;28;20044;-76
2022/10/16 03:12:28;;;;;;;8.20;3.00;;;13.40;99.90;;;;;;5028986;28;20447;-77
2022/10/16 03:14:56;;;;;;;6.85;2.55;;;13.40;99.90;;;;;;5041422;28;20430;-77
2022/10/16 03:17:22;;;;;;;7.85;2.80;;;13.40;99.90;;;;;;5021294;28;20956;-77
2022/10/16 03:19:48;;;;;;;5.63;2.72;;;13.40;99.90;;;;;;5043497;28;20041;-77
2022/10/16 03:22:13;;;;;;;4.45;2.75;;;13.40;99.90;;;;;;5045134;28;20442;-78
2022/10/16 03:24:39;;;;;;;5.95;2.80;;;13.50;99.90;;;;;;5039954;28;20568;-77
2022/10/16 03:27:05;;;;;;;7.47;3.20;;;13.40;99.90;;;;;;5042822;28;20060;-77
2022/10/16 03:29:32;;;;;;;5.38;2.90;;;13.40;99.90;;;;;;5025786;28;20047;-77
2022/10/16 03:31:58;;;;;;;4.32;2.97;;;13.50;99.90;;;;;;5041603;28;20041;-76
2022/10/16 03:34:24;;;;;;;6.90;2.85;;;13.50;99.90;;;;;;5025045;28;20045;-76
2022/10/16 03:36:50;;;;;;;7.40;2.63;;;13.40;99.90;;;;;;5035966;28;20049;-77
2022/10/16 03:39:15;;;;;;;7.85;3.33;;;13.50;99.90;;;;;;5046521;28;20119;-77
2022/10/16 03:41:41;;;;;;;4.93;2.83;;;13.50;99.90;;;;;;5028874;28;20041;-77
2022/10/16 03:44:07;;;;;;;5.45;3.17;;;13.50;99.90;;;;;;5048217;28;20126;-77
2022/10/16 03:46:32;;;;;;;8.23;3.38;;;13.50;99.90;;;;;;5031793;28;20041;-77
2022/10/16 03:48:58;;;;;;;7.60;3.30;;;13.50;99.90;;;;;;5047753;28;20068;-77
2022/10/16 03:51:23;;;;;;;6.85;3.20;;;13.60;99.90;;;;;;5042856;28;20037;-77
2022/10/16 03:53:49;;;;;;;5.20;3.00;;;13.40;99.90;;;;;;5027808;28;20051;-77
2022/10/16 03:56:15;;;;;;;6.93;3.55;;;13.60;99.90;;;;;;5048469;28;20056;-76
2022/10/16 03:58:40;;;;;;;6.95;3.28;;;13.50;99.90;;;;;;5030134;28;20068;-77
2022/10/16 04:01:06;;;;;;;6.50;4.00;;;13.50;99.90;;;;;;5046170;28;20435;-77
2022/10/16 04:03:32;;;;;;;7.72;3.70;;;13.50;99.90;;;;;;5044010;28;20090;-77
2022/10/16 04:05:57;;;;;;;6.43;3.63;;;13.50;99.90;;;;;;5045359;28;20099;-77
2022/10/16 04:08:23;;;;;;;6.88;3.55;;;13.50;99.90;;;;;;5046459;28;20180;-76
2022/10/16 04:10:49;;;;;;;6.70;3.63;;;13.50;99.90;;;;;;5030912;28;20056;-77
2022/10/16 04:13:15;;;;;;;7.18;3.60;;;13.50;99.90;;;;;;5064980;28;20450;-77
2022/10/16 04:15:40;;;;;;;7.07;4.05;;;13.50;99.90;;;;;;5065629;28;20044;-77
2022/10/16 04:18:06;;;;;;;5.30;3.63;;;13.50;99.90;;;;;;5050560;28;20093;-76
2022/10/16 04:20:32;;;;;;;6.57;3.78;;;13.50;99.90;;;;;;5047578;28;20045;-77
2022/10/16 04:22:58;;;;;;;7.30;4.05;;;13.50;99.90;;;;;;5051169;28;20090;-77
2022/10/16 04:25:24;;;;;;;5.35;3.90;;;13.50;99.90;;;;;;5044690;28;20057;-76
2022/10/16 04:27:49;;;;;;;9.38;4.47;;;13.50;99.90;;;;;;5051106;28;20083;-77
2022/10/16 04:30:15;;;;;;;5.05;3.90;;;13.50;99.90;;;;;;5048497;28;20044;-77
2022/10/16 04:32:41;;;;;;;7.40;4.22;;;13.50;99.90;;;;;;5063004;28;20052;-77
2022/10/16 04:35:07;;;;;;;6.32;4.47;;;13.40;99.90;;;;;;5042195;28;20047;-77
2022/10/16 04:37:33;;;;;;;6.22;4.32;;;13.50;99.90;;;;;;5047601;28;20040;-77
2022/10/16 04:39:58;;;;;;;7.13;4.38;;;13.50;99.90;;;;;;5050906;28;20048;-77
2022/10/16 04:42:24;;;;;;;8.45;4.10;;;13.40;99.90;;;;;;5067396;28;20049;-76
2022/10/16 04:44:50;;;;;;;7.45;4.28;;;13.40;99.90;;;;;;5044737;28;20106;-77
2022/10/16 04:47:15;;;;;;;8.65;4.50;;;13.40;99.90;;;;;;5049713;28;20048;-77
2022/10/16 04:49:41;;;;;;;6.13;4.43;;;13.40;99.90;;;;;;5048579;28;20041;-77
2022/10/16 04:52:06;;;;;;;8.98;4.95;;;13.40;99.90;;;;;;5046074;28;20048;-77
2022/10/16 04:54:32;;;;;;;6.90;4.95;;;13.50;99.90;;;;;;5042279;28;20049;-77
2022/10/16 04:56:58;;;;;;;9.02;4.80;;;13.40;99.90;;;;;;5066493;28;20083;-77
2022/10/16 04:59:23;;;;;;;5.68;4.15;;;13.40;99.90;;;;;;5063317;28;20076;-77
2022/10/16 05:01:49;;;;;;;6.78;4.28;;;13.50;99.90;;;;;;5045995;28;20462;-77
2022/10/16 05:04:16;;;;;;;6.55;4.28;;;13.40;99.90;;;;;;5065346;28;20079;-77
2022/10/16 05:06:42;;;;;;;7.35;4.10;;;13.40;99.90;;;;;;5045704;28;20044;-76
2022/10/16 05:09:08;;;;;;;8.60;4.32;;;13.40;99.90;;;;;;5063072;28;20471;-77
2022/10/16 05:11:34;;;;;;;5.38;3.78;;;13.40;99.90;;;;;;5067732;28;20055;-77
2022/10/16 05:14:00;;;;;;;5.88;4.10;;;13.40;99.90;;;;;;5061450;28;20060;-77
2022/10/16 05:16:26;;;;;;;5.28;3.53;;;13.40;99.90;;;;;;5068550;28;20078;-77
2022/10/16 05:18:52;;;;;;;6.15;3.70;;;13.40;99.90;;;;;;5045634;28;20037;-77
2022/10/16 05:21:18;;;;;;;5.03;4.15;;;13.40;99.90;;;;;;5065948;28;20144;-77
2022/10/16 05:23:43;;;;;;;6.32;4.07;;;13.40;99.90;;;;;;5060366;28;20040;-77
2022/10/16 05:26:09;;;;;;;6.15;3.83;;;13.40;99.90;;;;;;5048363;28;20364;-77
2022/10/16 05:28:35;;;;;;;6.32;3.80;;;13.30;99.90;;;;;;5062679;28;20105;-77
2022/10/16 05:31:08;;;;;;;5.13;3.63;;;13.30;99.90;;;;;;5063059;28;20044;-77
2022/10/16 05:33:34;;;;;;;6.28;4.00;;;13.30;99.90;;;;;;5045092;28;20155;-77
2022/10/16 05:36:08;;;;;;;6.65;4.07;;;13.30;99.90;;;;;;5067581;28;20132;-77
2022/10/16 05:38:35;;;;;;;6.30;3.90;;;13.40;99.90;;;;;;5048315;28;20068;-77
2022/10/16 05:41:01;;;;;;;6.43;3.83;;;13.30;99.90;;;;;;5045487;28;20461;-77
2022/10/16 05:43:28;;;;;;;5.95;4.20;;;13.30;99.90;;;;;;5045143;28;20037;-77
2022/10/16 05:46:05;;;;;;;6.88;3.90;;;13.30;99.90;;;;;;5043440;28;20462;-77
2022/10/16 05:48:31;;;;;;;6.75;4.07;;;13.30;99.90;;;;;;5057421;28;20052;-77
2022/10/16 05:51:06;;;;;;;5.28;3.78;;;13.20;99.90;;;;;;5046683;28;20055;-77
2022/10/16 05:53:34;;;;;;;5.80;3.70;;;13.20;99.90;;;;;;5044070;28;20082;-77
2022/10/16 05:56:00;;;;;;;6.50;3.78;;;13.20;99.90;;;;;;5066013;28;20144;-77
2022/10/16 05:58:30;;;;;;;6.03;3.70;;;13.30;99.90;;;;;;5063864;28;20044;-77
2022/10/16 06:01:04;;;;;;;5.55;3.65;;;13.30;99.90;;;;;;5040080;28;20036;-77
2022/10/16 06:03:30;;;;;;;6.20;3.90;;;13.30;99.90;;;;;;5060952;28;20041;-77
2022/10/16 06:05:56;;;;;;;7.07;3.92;;;13.30;99.90;;;;;;5046012;28;20556;-77
2022/10/16 06:08:22;;;;;;;6.65;3.90;;;13.30;99.90;;;;;;5045753;28;20101;-77
2022/10/16 06:10:59;;;;;;;5.70;3.63;;;13.20;99.90;;;;;;5045995;28;20721;-77
2022/10/16 06:13:25;;;;;;;10.98;4.40;;;13.30;99.90;;;;;;5043334;28;20492;-77
2022/10/16 06:15:50;;;;;;;5.15;3.58;;;13.30;99.90;;;;;;5045951;28;20048;-77
2022/10/16 06:18:16;;;;;;;6.75;3.80;;;13.30;99.90;;;;;;5042203;28;20210;-77
2022/10/16 06:20:42;;;;;;;5.43;3.95;;;13.20;99.90;;;;;;5067706;28;20052;-77
2022/10/16 06:23:07;;;;;;;7.18;4.03;;;13.20;99.90;;;;;;5045945;28;20048;-77
2022/10/16 06:25:33;;;;;;;7.85;3.78;;;13.20;99.90;;;;;;5062654;28;20484;-77
2022/10/16 06:27:59;;;;;;;7.88;3.63;;;13.20;99.90;;;;;;5068152;28;20041;-77
2022/10/16 06:30:25;;;;;;;6.53;3.60;;;13.30;99.90;;;;;;5042853;28;20052;-80
2022/10/16 06:32:50;;;;;;;9.15;3.90;;;13.20;99.90;;;;;;5040900;28;20055;-79
2022/10/16 06:35:16;;;;;;;7.35;3.80;;;13.20;99.90;;;;;;5066293;28;20028;-78
2022/10/16 06:37:42;;;;;;;7.78;3.78;;;13.30;99.90;;;;;;5065043;28;20037;-80
2022/10/16 06:40:08;;;;;;;6.82;3.63;;;13.20;99.90;;;;;;5064145;28;20080;-79
2022/10/16 06:42:33;;;;;;;4.82;3.63;;;13.30;99.90;;;;;;5041077;28;20072;-82
2022/10/16 06:44:59;;;;;;;7.22;3.63;;;13.30;99.90;;;;;;5044539;28;20720;-79
2022/10/16 06:47:25;;;;;;;7.05;3.72;;;13.20;99.90;;;;;;5044609;28;20559;-80
2022/10/16 06:49:51;;;;;;;5.15;3.15;;;13.30;99.90;;;;;;5044127;28;20051;-80
2022/10/16 06:52:16;;;;;;;4.75;3.17;;;13.30;99.90;;;;;;5051995;28;20032;-85
2022/10/16 06:54:42;;;;;;;6.00;3.03;;;13.30;99.90;;;;;;5046271;28;20407;-83
2022/10/16 06:57:08;;;;;;;6.18;3.70;;;13.30;99.90;;;;;;5062869;28;20123;-81
2022/10/16 06:59:33;;;;;;;4.93;3.53;;;13.30;99.90;;;;;;5056959;28;20125;-84
2022/10/16 07:01:59;;;;;;;4.57;3.10;;;13.30;99.90;;;;;;5061365;28;20045;-88
2022/10/16 07:04:24;;;;;;;4.97;3.15;;;13.40;99.90;;;;;;5042698;28;20044;-88
2022/10/16 07:06:51;;;;;;;5.43;3.20;;;13.40;99.90;;;;;;5065739;28;20059;-89
2022/10/16 07:09:17;;;;;;;4.27;2.90;;;13.40;99.90;;;;;;5061165;28;20040;-85
2022/10/16 07:11:42;;;;;;;6.50;3.10;;;13.40;99.90;;;;;;5061145;28;20330;-81
2022/10/16 07:14:19;;;;;;;7.00;2.92;;;13.40;99.90;;;;;;5060850;28;20062;-83
2022/10/16 07:16:45;;;;;;;11.87;3.17;;;13.40;99.90;;;;;;5064420;28;20058;-82
2022/10/16 07:19:13;;;;;;;6.57;3.30;;;13.50;99.90;;;;;;5045033;28;20303;-85
2022/10/16 07:21:39;;;;;;;8.50;3.63;;;13.50;99.90;;;;;;5041383;28;20048;-80
2022/10/16 07:24:07;;;;;;;6.53;3.60;;;13.60;99.90;;;;;;5045510;28;20060;-78
2022/10/16 07:26:36;;;;;;;6.97;3.50;;;13.60;99.90;;;;;;5064439;28;20040;-80
2022/10/16 07:29:01;;;;;;;8.02;3.53;;;13.70;99.90;;;;;;5064677;28;20091;-81
2022/10/16 07:31:27;;;;;;;6.45;3.00;;;13.80;99.90;;;;;;5042130;28;20072;-85
2022/10/16 07:33:54;;;;;;;6.22;3.45;;;13.80;99.90;;;;;;5066719;28;20041;-77
2022/10/16 07:36:20;;;;;;;4.65;3.05;;;13.90;99.90;;;;;;5059984;28;20044;-81
2022/10/16 07:38:47;;;;;;;6.33;2.70;;;13.90;99.90;;;;;;5063962;28;20036;-82
2022/10/16 07:41:15;;;;;;;5.63;2.85;;;13.90;99.90;;;;;;5063668;28;20036;-81
2022/10/16 07:43:46;;;;;;;4.35;3.05;;;13.90;99.90;;;;;;5059321;28;20045;-81
2022/10/16 07:46:11;;;;;;;6.80;2.85;;;13.90;99.90;;;;;;5044618;28;20090;-76
2022/10/16 07:48:37;;;;;;;5.97;3.13;;;13.90;99.90;;;;;;5044303;28;20053;-79
2022/10/16 07:51:06;;;;;;;5.80;3.25;;;13.90;99.90;;;;;;5060509;28;20098;-78
2022/10/16 07:53:33;;;;;;;6.38;3.05;;;13.90;99.90;;;;;;5063621;28;20614;-79
2022/10/16 07:56:02;;;;;;;7.00;3.72;;;14.00;99.90;;;;;;5059373;28;20042;-79
2022/10/16 07:58:29;;;;;;;5.60;3.25;;;14.00;99.90;;;;;;5063303;28;20075;-75
2022/10/16 08:00:56;;;;;;;5.63;3.07;;;14.00;99.90;;;;;;5062741;28;20492;-82
2022/10/16 08:03:23;;;;;;;10.32;3.30;;;14.00;99.90;;;;;;5060705;28;20041;-84
2022/10/16 08:05:49;;;;;;;7.40;3.00;;;14.00;99.90;;;;;;5036100;28;20059;-78
2022/10/16 08:08:16;;;;;;;7.43;2.70;;;14.00;99.90;;;;;;5058293;28;20052;-78
2022/10/16 08:10:42;;;;;;;6.60;2.75;;;14.00;99.90;;;;;;5044282;28;20037;-79
2022/10/16 08:13:08;;;;;;;4.82;2.78;;;14.00;99.90;;;;;;5065487;28;20122;-82
2022/10/16 08:15:34;;;;;;;4.80;2.90;;;14.00;99.90;;;;;;5047657;28;20737;-81
2022/10/16 08:18:01;;;;;;;4.50;2.35;;;14.10;99.90;;;;;;5049771;28;20686;-81
2022/10/16 08:20:29;;;;;;;7.55;2.80;;;14.10;99.90;;;;;;5042766;28;20110;-80
2022/10/16 08:22:55;;;;;;;;;;;14.10;99.90;;;;;;5039862;28;20673;-84
2022/10/16 08:25:22;;;;;;;6.65;2.60;;;14.10;99.90;;;;;;5065093;28;19921;-82
2022/10/16 08:27:48;;;;;;;;;;;14.10;99.90;;;;;;5049039;28;21218;-82
2022/10/16 08:30:15;;;;;;;5.53;2.40;;;14.10;99.90;;;;;;5070181;28;19971;-82
2022/10/16 08:32:43;;;;;;;5.47;2.72;;;14.20;99.90;;;;;;5064991;28;20041;-85
2022/10/16 08:35:10;;;;;;;7.50;2.80;;;14.20;99.90;;;;;;5069009;28;20672;-81
2022/10/16 08:37:36;;;;;;;5.85;2.90;;;14.30;99.90;;;;;;5069263;28;20119;-80
2022/10/16 08:40:04;;;;;;;4.85;2.47;;;14.30;99.90;;;;;;5065656;28;20032;-84
2022/10/16 08:43:02;;;;;;;4.70;2.70;;;14.30;99.90;;;;;;5043042;28;20048;-82
2022/10/16 08:45:42;;;;;;;5.47;2.53;;;14.30;99.90;;;;;;5061342;28;20136;-80
2022/10/16 08:48:48;;;;;;;6.13;2.55;;;14.40;99.90;;;;;;5047528;28;20048;-77
2022/10/16 08:51:20;;;;;;;;;;;14.40;99.90;;;;;;5001529;28;20057;-79
2022/10/16 08:53:55;;;;;;;5.40;2.90;;;14.40;99.90;;;;;;5003409;28;19942;-76
2022/10/16 08:56:22;;;;;;;6.45;2.80;;;14.40;99.90;;;;;;5040549;28;20135;-83
2022/10/16 08:58:48;;;;;;;5.68;2.80;;;14.50;99.90;;;;;;5048015;28;20036;-84
2022/10/16 09:01:16;;;;;;;7.97;3.20;;;14.50;99.90;;;;;;5068041;28;20036;-85
2022/10/16 09:03:51;;;;;;;5.93;2.50;;;14.60;99.90;;;;;;5061074;28;20567;-78
2022/10/16 09:06:55;;;;;;;6.18;2.58;;;14.60;99.90;;;;;;5050185;28;20475;-84
2022/10/16 09:09:24;;;;;;;5.65;2.65;;;14.60;99.90;;;;;;5052085;28;20040;-79
2022/10/16 09:11:59;;;;;;;7.07;2.90;;;14.70;99.90;;;;;;5039941;28;20103;-84
2022/10/16 09:14:58;;;;;;;6.47;2.40;;;14.70;99.90;;;;;;5027607;28;20187;-80
2022/10/16 09:17:44;;;;;;;7.53;2.17;;;14.70;99.90;;;;;;5048749;28;20192;-79
2022/10/16 09:20:37;;;;;;;4.60;2.20;;;14.70;99.90;;;;;;5025304;28;20050;-79
2022/10/16 09:23:17;;;;;;;6.13;2.20;;;14.80;99.90;;;;;;5026060;28;20053;-81
2022/10/16 09:25:47;;;;;;;3.75;1.73;;;14.80;99.90;;;;;;5025827;28;20571;-79
2022/10/16 09:28:13;;;;;;;5.55;2.05;;;14.90;99.90;;;;;;5045823;28;20041;-79
2022/10/16 09:30:39;;;;;;;6.20;2.10;;;14.90;99.90;;;;;;5026484;28;20044;-76
2022/10/16 09:33:06;;;;;;;5.65;2.15;;;15.00;99.90;;;;;;5048622;28;20098;-77
2022/10/16 09:35:42;;;;;;;7.78;2.15;;;15.00;99.90;;;;;;5045818;28;20045;-79
2022/10/16 09:38:08;;;;;;;6.40;2.40;;;15.10;99.90;;;;;;5047159;28;20041;-80
2022/10/16 09:40:37;;;;;;;5.22;1.90;;;15.10;99.90;;;;;;5043866;28;20079;-77
2022/10/16 09:43:28;;;;;;;8.25;2.05;;;15.10;99.90;;;;;;5048447;28;20049;-81
2022/10/16 09:46:06;;;;;;;6.65;2.10;;;15.20;99.90;;;;;;5024501;28;20053;-76
2022/10/16 09:48:36;;;;;;;7.30;2.30;;;15.20;99.90;;;;;;5029648;28;20132;-77
2022/10/16 09:51:04;;;;;;;6.50;1.95;;;15.30;99.90;;;;;;5028842;28;20045;-76
2022/10/16 09:53:44;;;;;;;6.88;2.58;;;15.40;99.90;;;;;;5042515;28;20076;-78
2022/10/16 09:56:20;;;;;;;9.05;2.20;;;15.40;99.90;;;;;;5047008;28;20053;-77
2022/10/16 09:58:52;;;;;;;7.95;2.55;;;15.40;99.90;;;;;;5029154;28;20041;-76
2022/10/16 10:01:18;;;;;;;9.88;2.70;;;15.50;99.90;;;;;;5046517;28;20361;-76
2022/10/16 10:03:45;;;;;;;8.30;1.80;;;15.50;99.90;;;;;;5028792;28;20047;-75
2022/10/16 10:06:23;;;;;;;9.02;2.45;;;15.60;99.90;;;;;;5042875;28;20057;-83
2022/10/16 10:08:57;;;;;;;8.85;2.13;;;15.70;99.90;;;;;;5027950;28;20554;-81
2022/10/16 10:11:44;;;;;;;14.95;2.30;;;15.70;99.90;;;;;;5050507;28;20088;-73
2022/10/16 10:14:20;;;;;;;11.38;2.10;;;15.80;99.90;;;;;;5069538;28;20400;-74
2022/10/16 10:16:46;;;;;;;9.00;2.05;;;15.80;99.90;;;;;;5059058;28;20127;-79
2022/10/16 10:19:21;;;;;;;9.10;1.83;;;15.80;99.90;;;;;;5066948;28;20079;-78
2022/10/16 10:21:48;;;;;;;7.30;1.95;;;15.90;99.90;;;;;;5064182;28;20036;-79
2022/10/16 10:24:16;;;;;;;10.17;1.70;;;15.90;99.90;;;;;;5050142;28;20040;-77
2022/10/16 10:26:54;;;;;;;9.95;2.22;;;16.00;99.90;;;;;;5064709;28;20532;-76
2022/10/16 10:29:26;;;;;;;7.72;1.88;;;16.00;99.90;;;;;;5066551;28;20048;-80
2022/10/16 10:32:10;;;;;;;11.82;2.13;;;16.10;99.90;;;;;;5048953;28;20040;-78
2022/10/16 10:34:47;;;;;;;7.05;2.00;;;16.10;99.90;;;;;;5066445;28;20085;-78
2022/10/16 10:37:28;;;;;;;9.25;2.10;;;16.20;99.90;;;;;;5064699;28;20194;-80
2022/10/16 10:40:07;;;;;;;9.73;2.25;;;16.20;99.90;;;;;;5063433;28;20041;-82
2022/10/16 10:42:48;;;;;;;7.95;1.83;;;16.30;99.90;;;;;;5060430;28;20047;-78
2022/10/16 10:45:29;;;;;;;11.00;2.20;;;16.30;99.90;;;;;;5055704;28;20048;-79
2022/10/16 10:48:48;;;;;;;11.65;2.00;;;16.30;99.90;;;;;;5059112;28;20443;-78
2022/10/16 10:51:25;;;;;;;11.00;2.55;;;16.40;99.90;;;;;;5023252;28;20105;-83
2022/10/16 10:54:05;;;;;;;9.98;2.00;;;16.40;99.90;;;;;;5023030;28;20535;-83
2022/10/16 10:57:02;;;;;;;9.27;1.83;;;16.40;99.90;;;;;;5052476;28;20503;-77
2022/10/16 10:59:40;;;;;;;8.27;2.00;;;16.40;99.90;;;;;;5061805;28;20737;-75
2022/10/16 11:02:12;;;;;;;7.70;2.00;;;16.50;99.90;;;;;;5045079;28;20575;-79
2022/10/16 11:05:08;;;;;;;9.80;2.28;;;16.50;99.90;;;;;;5041429;28;20048;-80
2022/10/16 11:07:42;;;;;;;10.70;2.28;;;16.50;99.90;;;;;;5061249;28;20066;-85
2022/10/16 11:10:28;;;;;;;10.27;2.78;;;16.50;99.90;;;;;;5045093;28;20415;-83
2022/10/16 11:13:22;;;;;;;8.60;2.20;;;16.50;99.90;;;;;;5062953;28;20057;-80
2022/10/16 11:15:53;;;;;;;11.32;2.30;;;16.50;99.90;;;;;;5064993;28;20127;-76
2022/10/16 11:18:24;;;;;;;9.25;2.20;;;16.60;99.90;;;;;;5062941;28;20044;-76
2022/10/16 11:21:00;;;;;;;11.43;2.30;;;16.70;99.90;;;;;;5058724;28;20040;-80
2022/10/16 11:23:35;;;;;;;10.60;1.92;;;16.70;99.90;;;;;;5065596;28;20507;-82
2022/10/16 11:26:06;;;;;;;8.95;2.10;;;16.90;99.90;;;;;;5041424;28;20083;-81
2022/10/16 11:28:39;;;;;;;8.45;2.00;;;16.90;99.90;;;;;;5065839;28;20045;-80
2022/10/16 11:31:22;;;;;;;13.07;2.00;;;16.90;99.90;;;;;;5064781;28;20055;-84
2022/10/16 11:33:59;;;;;;;10.98;2.33;;;16.90;99.90;;;;;;5064758;28;20049;-91
2022/10/16 11:36:38;;;;;;;8.60;2.30;;;16.90;99.90;;;;;;5063357;28;20484;-85
2022/10/16 11:39:06;;;;;;;8.27;2.17;;;16.90;99.90;;;;;;5060166;28;20539;-82
2022/10/16 11:41:39;;;;;;;13.30;2.78;;;16.90;99.90;;;;;;5043751;28;20044;-82
2022/10/16 11:44:17;;;;;;;12.25;2.38;;;16.80;99.90;;;;;;5043329;28;20052;-82
2022/10/16 11:46:52;;;;;;;7.13;2.10;;;16.90;99.90;;;;;;5055378;28;20094;-75
2022/10/16 11:49:26;;;;;;;8.93;1.95;;;16.90;99.90;;;;;;5065325;28;20079;-80
2022/10/16 11:52:28;;;;;;;8.55;2.17;;;16.90;99.90;;;;;;5053537;28;20045;-80
2022/10/16 11:55:02;;;;;;;9.20;2.50;;;16.80;99.90;;;;;;5063364;28;20049;-75
2022/10/16 11:57:32;;;;;;;9.32;1.80;;;16.70;99.90;;;;;;5066614;28;20422;-83
2022/10/16 12:00:06;;;;;;;8.93;2.20;;;16.60;99.90;;;;;;5063677;28;20898;-84
2022/10/16 12:02:56;;;;;;;14.20;2.90;;;16.60;99.90;;;;;;5065622;28;20418;-77
2022/10/16 12:06:00;;;;;;;9.75;2.22;;;16.60;99.90;;;;;;5065696;28;20051;-81
2022/10/16 12:08:27;;;;;;;8.45;2.25;;;16.60;99.90;;;;;;5046308;28;20053;-81
2022/10/16 12:10:55;;;;;;;11.77;2.65;;;16.60;99.90;;;;;;5070336;28;20048;-80
2022/10/16 12:13:30;;;;;;;10.20;2.22;;;16.70;99.90;;;;;;5067366;28;20044;-77
2022/10/16 12:16:14;;;;;;;6.80;2.03;;;16.80;99.90;;;;;;5068909;28;20080;-80
2022/10/16 12:18:42;;;;;;;13.63;2.40;;;17.00;99.90;;;;;;5052361;28;20652;-82
2022/10/16 12:21:09;;;;;;;8.30;2.13;;;17.00;99.90;;;;;;5069361;28;20475;-84
2022/10/16 12:23:49;;;;;;;9.57;2.22;;;17.20;99.90;;;;;;5067262;28;20090;-83
2022/10/16 12:26:33;;;;;;;9.98;2.10;;;17.30;99.90;;;;;;5051289;28;20048;-81
2022/10/16 12:29:28;;;;;;;9.45;1.95;;;17.40;99.90;;;;;;5047899;28;20128;-82
2022/10/16 12:31:54;;;;;;;10.90;2.50;;;17.50;99.90;;;;;;5069061;28;20127;-88
2022/10/16 12:34:37;;;;;;;7.88;1.90;;;17.50;99.90;;;;;;5065727;28;20074;-80
2022/10/16 12:37:20;;;;;;;10.48;2.40;;;17.50;99.90;;;;;;5047653;28;20056;-79
2022/10/16 12:39:49;;;;;;;8.27;2.20;;;17.50;99.90;;;;;;5066029;28;20458;-81
2022/10/16 12:42:26;;;;;;;12.30;1.92;;;17.50;99.90;;;;;;5047855;28;20086;-81
2022/10/16 12:44:52;;;;;;;9.38;1.90;;;17.60;99.90;;;;;;5051662;28;20048;-81
2022/10/16 12:47:38;;;;;;;9.00;2.20;;;17.70;99.90;;;;;;5069311;28;20048;-79
2022/10/16 12:50:30;;;;;;;6.43;1.70;;;17.80;99.90;;;;;;5049440;28;20048;-84
2022/10/16 12:52:56;;;;;;;6.35;1.77;;;17.90;99.90;;;;;;5064240;28;20048;-82
2022/10/16 12:55:23;;;;;;;11.27;2.05;;;17.90;99.90;;;;;;5069868;28;20052;-82
2022/10/16 12:58:07;;;;;;;10.27;1.80;;;17.90;99.90;;;;;;5066246;28;20419;-78
2022/10/16 13:00:57;;;;;;;7.38;1.50;;;17.90;99.90;;;;;;5049001;28;20040;-76
2022/10/16 13:03:42;;;;;;;9.95;2.50;;;17.90;99.90;;;;;;5045480;28;20042;-79
2022/10/16 13:06:07;;;;;;;8.15;1.60;;;17.90;99.90;;;;;;5048183;28;20506;-73
2022/10/16 13:08:48;;;;;;;7.18;1.70;;;17.80;99.90;;;;;;5046276;28;20044;-81